createdAt,value
2023-03-23T00:56:24.453Z,32.69
2023-03-23T01:00:25.266Z,31.57
2023-03-23T01:04:25.321Z,31.45
2023-03-23T01:08:25.775Z,31.39
2023-03-23T01:12:25.880Z,31.37
2023-03-23T01:16:25.784Z,31.34
2023-03-23T01:20:25.816Z,31.30
2023-03-23T01:24:25.881Z,31.30
2023-03-23T01:28:26.094Z,31.27
2023-03-23T01:32:26.140Z,31.25
2023-03-23T01:36:26.247Z,31.24
2023-03-23T01:40:26.364Z,31.22
2023-03-23T01:44:26.511Z,31.22
2023-03-23T01:48:26.622Z,31.19
2023-03-23T01:52:26.750Z,31.19
2023-03-23T01:56:27.183Z,31.18
2023-03-23T02:00:27.217Z,31.17
2023-03-23T02:04:27.183Z,31.15
2023-03-23T02:08:27.269Z,31.14
2023-03-23T02:12:27.398Z,31.13
2023-03-23T02:16:27.560Z,31.11
2023-03-23T02:20:27.658Z,31.08
2023-03-23T02:24:27.795Z,31.09
2023-03-23T02:28:27.917Z,31.09
2023-03-23T02:32:28.098Z,31.08
2023-03-23T02:36:28.220Z,31.05
2023-03-23T02:40:28.318Z,31.03
2023-03-23T02:44:28.430Z,31.03
2023-03-23T02:48:28.582Z,31.04
2023-03-23T02:52:28.681Z,31.00
2023-03-23T02:56:28.809Z,30.99
2023-03-23T03:00:28.923Z,30.97
2023-03-23T03:04:29.068Z,30.94
2023-03-23T03:08:29.164Z,30.94
2023-03-23T03:12:29.259Z,30.93
2023-03-23T03:16:29.401Z,30.93
2023-03-23T03:20:29.563Z,30.92
2023-03-23T03:24:29.668Z,30.90
2023-03-23T03:28:29.811Z,30.90
2023-03-23T03:36:29.123Z,30.88
2023-03-23T03:44:29.429Z,30.88
2023-03-23T03:52:29.714Z,30.82
2023-03-23T04:04:30.078Z,30.79
2023-03-23T04:12:30.328Z,30.80
2023-03-23T04:20:32.381Z,30.77
2023-03-23T04:28:30.834Z,30.76
2023-03-23T07:00:35.789Z,30.59
2023-03-23T07:48:35.304Z,31.93
2023-03-23T09:48:34.356Z,32.52
2023-03-23T09:52:34.359Z,32.44
2023-03-23T09:56:35.359Z,32.37
2023-03-23T10:00:35.974Z,32.40
2023-03-23T10:04:35.356Z,32.29
2023-03-23T10:08:36.544Z,32.25
2023-03-23T10:12:35.089Z,32.24
2023-03-23T10:16:35.392Z,32.22
2023-03-23T10:20:35.368Z,32.15
2023-03-23T10:24:35.371Z,32.06
2023-03-23T10:28:35.372Z,32.05
2023-03-23T10:32:35.397Z,32.06
2023-03-23T10:40:34.476Z,32.02
2023-03-23T11:44:35.178Z,31.83
2023-03-23T11:48:36.410Z,31.83
2023-03-23T11:52:37.437Z,31.83
2023-03-23T11:56:37.194Z,31.82
2023-03-23T12:00:37.188Z,31.81
2023-03-23T12:04:37.456Z,31.82
2023-03-23T12:08:37.233Z,31.83
2023-03-23T12:12:37.190Z,31.81
2023-03-23T12:16:37.220Z,31.81
2023-03-23T12:20:42.857Z,31.81
2023-03-23T12:24:37.469Z,31.80
2023-03-23T12:28:37.197Z,31.78
2023-03-23T12:32:37.181Z,31.77
2023-03-23T12:36:37.219Z,31.78
2023-03-23T12:40:36.955Z,31.78
2023-03-23T12:44:36.953Z,31.79
2023-03-23T12:48:36.610Z,31.81
2023-03-23T12:52:36.942Z,31.82
2023-03-23T12:56:36.963Z,31.82
2023-03-23T13:00:36.946Z,31.82
2023-03-23T13:04:36.940Z,31.83
2023-03-23T13:08:36.967Z,31.83
2023-03-23T13:12:36.968Z,31.83
2023-03-23T13:16:36.951Z,31.85
2023-03-23T13:20:36.789Z,31.83
2023-03-23T13:24:36.953Z,31.83
2023-03-23T13:28:36.978Z,31.85
2023-03-23T13:32:40.922Z,31.80
2023-03-23T13:36:37.008Z,31.83
2023-03-23T13:40:36.612Z,31.84
2023-03-23T13:44:36.988Z,32.01
2023-03-23T13:48:36.964Z,32.18
2023-03-23T13:52:37.211Z,32.42
2023-03-23T13:56:37.230Z,32.31
2023-03-23T14:00:36.696Z,32.32
2023-03-23T14:04:37.241Z,32.45
2023-03-23T14:08:37.232Z,32.49
2023-03-23T14:12:37.232Z,32.59
2023-03-23T14:16:36.540Z,32.63
2023-03-23T14:20:37.236Z,32.73
2023-03-23T14:24:37.240Z,32.71
2023-03-23T14:28:37.240Z,32.73
2023-03-23T14:32:37.501Z,32.88
2023-03-23T14:36:36.800Z,32.89
2023-03-23T14:40:37.294Z,32.81
2023-03-23T14:44:37.256Z,32.78
2023-03-23T14:48:37.371Z,32.91
2023-03-23T14:52:37.481Z,32.84
2023-03-23T14:56:37.250Z,32.76
2023-03-23T15:00:37.249Z,32.75
2023-03-23T15:04:37.323Z,32.75
2023-03-23T15:08:37.259Z,32.74
2023-03-23T15:12:37.269Z,32.68
2023-03-23T15:16:37.491Z,32.60
2023-03-23T15:20:37.573Z,32.61
2023-03-23T15:24:37.502Z,32.57
2023-03-23T15:28:37.278Z,32.56
2023-03-23T15:32:37.508Z,32.53
2023-03-23T15:36:37.563Z,32.55
2023-03-23T15:40:37.642Z,32.58
2023-03-23T15:44:38.023Z,32.56
2023-03-23T15:48:38.018Z,32.58
2023-03-23T15:52:38.078Z,32.55
2023-03-23T15:56:37.491Z,32.53
2023-03-23T16:00:37.524Z,32.51
2023-03-23T16:04:38.029Z,32.53
2023-03-23T16:08:38.054Z,32.46
2023-03-23T16:12:38.055Z,32.48
2023-03-23T16:16:38.630Z,32.51
2023-03-23T16:20:38.038Z,32.50
2023-03-23T16:24:37.707Z,32.49
2023-03-23T16:28:38.037Z,32.49
2023-03-23T16:36:37.875Z,32.47
2023-03-23T16:40:38.204Z,32.48
2023-03-23T16:44:37.989Z,32.44
2023-03-23T16:48:38.081Z,32.48
2023-03-23T16:52:46.161Z,32.46
2023-03-23T16:56:38.180Z,32.46
2023-03-23T17:00:38.140Z,32.44
2023-03-23T17:04:38.059Z,32.46
2023-03-23T17:08:38.049Z,32.43
2023-03-23T17:12:38.682Z,32.45
2023-03-23T17:16:37.992Z,32.44
2023-03-23T17:20:37.918Z,32.42
2023-03-23T17:24:37.887Z,32.42
2023-03-23T17:28:38.020Z,32.44
2023-03-23T17:32:37.848Z,32.43
2023-03-23T17:36:37.767Z,32.44
2023-03-23T17:40:37.740Z,32.45
2023-03-23T17:44:37.720Z,32.47
2023-03-23T17:48:37.656Z,32.46
2023-03-23T17:52:37.620Z,32.50
2023-03-23T17:56:37.624Z,32.48
2023-03-23T18:00:37.580Z,32.50
2023-03-23T18:04:37.576Z,32.50
2023-03-23T18:08:37.489Z,32.53
2023-03-23T18:12:37.433Z,32.52
2023-03-23T18:16:37.643Z,32.53
2023-03-23T18:20:37.709Z,32.54
2023-03-23T18:24:37.581Z,32.53
2023-03-23T18:28:37.668Z,32.52
2023-03-23T18:32:38.154Z,32.55
2023-03-23T18:36:37.833Z,32.55
2023-03-23T18:40:37.913Z,32.52
2023-03-23T18:44:37.971Z,32.52
2023-03-23T18:48:38.073Z,32.55
2023-03-23T18:52:38.169Z,32.55
2023-03-23T18:56:38.247Z,32.53
2023-03-23T19:00:38.318Z,32.55
2023-03-23T19:04:38.450Z,32.55
2023-03-23T19:08:38.511Z,32.54
2023-03-23T19:12:38.703Z,32.52
2023-03-23T19:16:38.688Z,32.54
2023-03-23T19:21:09.656Z,32.53
2023-03-23T19:24:38.834Z,32.53
2023-03-23T19:32:37.700Z,32.51
2023-03-23T19:36:39.521Z,32.53
2023-03-23T19:40:40.921Z,32.51
2023-03-23T19:44:38.895Z,32.51
2023-03-23T19:48:39.721Z,32.49
2023-03-23T19:52:38.586Z,32.49
2023-03-23T19:56:38.879Z,32.52
2023-03-23T20:00:38.877Z,32.50
2023-03-23T20:04:39.996Z,32.49
2023-03-23T20:08:39.340Z,32.49
2023-03-23T20:12:39.280Z,32.50
2023-03-23T20:16:39.415Z,32.50
2023-03-23T20:20:39.681Z,32.50
2023-03-23T20:24:39.759Z,32.50
2023-03-23T20:28:40.656Z,32.48
2023-03-23T20:32:40.068Z,32.50
2023-03-23T20:36:40.342Z,32.49
2023-03-23T20:40:40.383Z,32.49
2023-03-23T20:44:40.539Z,32.47
2023-03-23T20:48:40.723Z,32.48
2023-03-23T20:52:40.907Z,32.50
2023-03-23T20:56:41.140Z,32.50
2023-03-23T21:00:41.294Z,32.48
2023-03-23T21:04:41.476Z,32.48
2023-03-23T21:08:41.687Z,32.49
2023-03-23T21:12:41.994Z,32.47
2023-03-23T21:16:42.585Z,32.47
2023-03-23T21:20:42.754Z,32.46
2023-03-23T21:24:42.522Z,32.46
2023-03-23T21:28:42.735Z,32.47
2023-03-23T21:32:42.971Z,32.45
2023-03-23T21:36:43.488Z,32.44
2023-03-23T21:40:43.694Z,32.47
2023-03-23T21:44:43.191Z,32.45
2023-03-23T21:48:43.019Z,32.46
2023-03-23T21:52:42.992Z,32.46
2023-03-23T21:56:42.979Z,32.45
2023-03-23T22:00:45.030Z,32.44
2023-03-23T22:04:42.937Z,32.46
2023-03-23T22:08:42.844Z,32.44
2023-03-23T22:12:42.791Z,32.46
2023-03-23T22:16:43.774Z,32.43
2023-03-23T22:20:42.949Z,32.44
2023-03-23T22:24:42.761Z,32.46
2023-03-23T22:28:42.722Z,32.45
2023-03-23T22:32:44.274Z,32.42
2023-03-23T22:36:42.668Z,32.43
2023-03-23T22:40:42.685Z,32.44
2023-03-23T22:44:42.589Z,32.41
2023-03-23T22:48:42.735Z,32.43
2023-03-23T22:52:42.538Z,32.41
2023-03-23T22:56:42.593Z,32.42
2023-03-23T23:00:42.654Z,32.41
2023-03-23T23:04:42.746Z,32.41
2023-03-23T23:08:42.729Z,32.40
2023-03-23T23:12:42.561Z,32.39
2023-03-23T23:16:42.481Z,32.38
2023-03-23T23:20:42.533Z,32.42
2023-03-23T23:24:42.571Z,32.37
2023-03-23T23:28:42.720Z,32.38
2023-03-23T23:32:42.967Z,32.37
2023-03-23T23:36:43.013Z,32.37
2023-03-23T23:40:43.455Z,32.39
2023-03-23T23:44:43.263Z,32.40
2023-03-23T23:48:43.399Z,32.37
2023-03-23T23:52:43.545Z,32.38
2023-03-23T23:56:43.532Z,32.39
